Time;durP1;ratioP1;P1;durP2;ratioP2;P2;SDS_P1;SDS_P2;PMS_P1;PMS_P2;Temp;Humidity;BMP_temperature;BMP_pressure;BME280_temperature;BME280_humidity;BME280_pressure;Samples;Min_cycle;Max_cycle;Signal;HPM_P1;HPM_P2
2023/11/17 00:03:53;;;;;;;34.45;20.40;;;;;;;;;;6816335;23;20052;-87
2023/11/17 00:06:59;;;;;;;35.70;20.80;;;;;;;;;;6320216;28;20037;-86
2023/11/17 00:10:10;;;;;;;32.85;19.77;;;;;;;;;;6318761;28;20063;-85
2023/11/17 00:13:18;;;;;;;39.33;20.50;;;;;;;;;;6332792;28;20231;-85
2023/11/17 00:16:30;;;;;;;41.85;22.13;;;;;;;;;;6321505;28;20079;-85
2023/11/17 00:19:40;;;;;;;42.40;22.67;;;;;;;;;;6334908;28;20043;-85
2023/11/17 00:22:57;;;;;;;40.20;21.65;;;;;;;;;;6368167;28;20065;-85
2023/11/17 00:26:01;;;;;;;39.72;22.17;;;;;;;;;;6376136;28;20103;-85
2023/11/17 00:29:09;;;;;;;40.90;22.92;;;;;;;;;;6362562;28;20036;-85
2023/11/17 00:32:13;;;;;;;36.38;20.27;;;;;;;;;;6358345;28;20352;-85
2023/11/17 00:52:31;;;;;;;31.10;19.35;;;;;;;;;;6182231;28;20044;-84
2023/11/17 01:02:39;;;;;;;31.83;19.77;;;;;;;;;;6189019;28;20095;-84
2023/11/17 01:05:46;;;;;;;32.35;18.02;;;;;;;;;;6211262;28;20266;-82
2023/11/17 01:09:17;;;;;;;31.20;17.70;;;;;;;;;;6199141;28;20122;-83
2023/11/17 01:15:30;;;;;;;30.58;17.60;;;;;;;;;;6329354;23;20036;-85
2023/11/17 01:18:32;;;;;;;28.52;15.45;;;;;;;;;;6240666;28;20045;-84
2023/11/17 01:21:47;;;;;;;27.05;15.85;;;;;;;;;;6235912;28;20042;-85
2023/11/17 01:25:15;;;;;;;32.20;16.13;;;;;;;;;;6212188;28;20039;-84
2023/11/17 01:28:20;;;;;;;31.23;16.73;;;;;;;;;;6213594;28;20053;-85
2023/11/17 01:31:36;;;;;;;29.35;16.02;;;;;;;;;;6238262;28;20049;-85
2023/11/17 01:34:43;;;;;;;26.55;16.48;;;;;;;;;;6222449;28;20704;-85
2023/11/17 01:37:52;;;;;;;23.77;15.43;;;;;;;;;;6232168;28;20049;-85
2023/11/17 01:41:03;;;;;;;27.75;16.38;;;;;;;;;;6242638;28;20085;-84
2023/11/17 01:44:17;;;;;;;25.10;13.90;;;;;;;;;;6246364;28;20053;-84
2023/11/17 01:47:32;;;;;;;31.75;15.48;;;;;;;;;;6222286;28;20043;-85
2023/11/17 01:50:47;;;;;;;25.40;13.65;;;;;;;;;;6207170;28;20024;-84
2023/11/17 01:54:07;;;;;;;24.83;13.30;;;;;;;;;;6227411;28;20045;-84
2023/11/17 01:57:33;;;;;;;25.00;12.75;;;;;;;;;;6228694;28;20054;-85
2023/11/17 02:01:16;;;;;;;20.67;11.95;;;;;;;;;;6186520;28;20140;-85
2023/11/17 02:04:31;;;;;;;22.48;11.90;;;;;;;;;;6176713;28;20038;-85
2023/11/17 02:07:46;;;;;;;18.88;10.93;;;;;;;;;;6197129;28;20053;-85
2023/11/17 02:14:14;;;;;;;21.23;11.18;;;;;;;;;;6248400;23;20147;-84
2023/11/17 02:17:37;;;;;;;19.95;10.93;;;;;;;;;;6222988;28;20057;-85
2023/11/17 02:20:46;;;;;;;17.60;11.00;;;;;;;;;;6204694;28;20034;-84
2023/11/17 02:23:55;;;;;;;17.88;10.18;;;;;;;;;;6239546;28;20042;-85
2023/11/17 02:27:27;;;;;;;17.42;10.57;;;;;;;;;;6246720;28;20057;-85
2023/11/17 02:30:55;;;;;;;18.50;10.18;;;;;;;;;;6245451;28;20053;-85
2023/11/17 02:34:14;;;;;;;16.45;9.48;;;;;;;;;;6235870;28;20073;-84
2023/11/17 02:40:38;;;;;;;18.92;9.63;;;;;;;;;;6245439;28;20105;-85
2023/11/17 02:43:46;;;;;;;19.00;9.75;;;;;;;;;;6239392;28;20054;-85
2023/11/17 02:46:58;;;;;;;16.48;9.35;;;;;;;;;;6248224;28;20089;-85
2023/11/17 02:50:09;;;;;;;15.63;8.18;;;;;;;;;;6255087;28;20075;-84
2023/11/17 02:53:23;;;;;;;14.73;9.30;;;;;;;;;;6242942;28;20046;-85
2023/11/17 02:56:30;;;;;;;14.88;8.48;;;;;;;;;;6216730;28;20062;-85
2023/11/17 02:59:37;;;;;;;14.27;8.32;;;;;;;;;;6236647;28;20069;-85
2023/11/17 03:02:48;;;;;;;12.95;7.95;;;;;;;;;;6230859;28;20046;-86
2023/11/17 03:06:12;;;;;;;12.57;7.80;;;;;;;;;;6227931;28;20114;-85
2023/11/17 03:09:26;;;;;;;13.17;7.37;;;;;;;;;;6191489;28;20069;-84
2023/11/17 03:12:36;;;;;;;16.30;7.82;;;;;;;;;;6199384;28;20042;-85
2023/11/17 03:15:56;;;;;;;14.38;7.90;;;;;;;;;;6202002;28;20054;-84
2023/11/17 03:19:15;;;;;;;14.32;7.45;;;;;;;;;;6213898;28;20034;-85
2023/11/17 03:22:31;;;;;;;9.93;6.25;;;;;;;;;;6208605;28;20105;-85
2023/11/17 03:25:53;;;;;;;11.13;6.63;;;;;;;;;;6228693;28;20065;-85
2023/11/17 03:29:07;;;;;;;10.57;6.40;;;;;;;;;;6227261;28;20058;-85
2023/11/17 03:32:20;;;;;;;13.18;6.90;;;;;;;;;;6228858;28;20038;-85
2023/11/17 03:35:40;;;;;;;8.77;6.35;;;;;;;;;;6229916;28;20046;-85
2023/11/17 03:39:02;;;;;;;11.50;6.38;;;;;;;;;;6226987;28;20098;-85
2023/11/17 03:42:22;;;;;;;10.48;6.35;;;;;;;;;;6216271;28;20404;-85
2023/11/17 03:49:07;;;;;;;10.93;5.85;;;;;;;;;;6205590;28;20050;-85
2023/11/17 03:52:23;;;;;;;9.02;5.55;;;;;;;;;;6216149;28;20062;-85
2023/11/17 03:55:41;;;;;;;10.05;5.63;;;;;;;;;;6216879;28;20045;-84
2023/11/17 03:59:00;;;;;;;8.57;5.03;;;;;;;;;;6219388;28;20062;-85
2023/11/17 04:05:48;;;;;;;8.00;4.65;;;;;;;;;;6201812;28;20053;-85
2023/11/17 04:08:59;;;;;;;9.60;5.07;;;;;;;;;;6229206;28;20034;-85
2023/11/17 04:12:04;;;;;;;8.68;4.88;;;;;;;;;;6226451;28;20054;-85
2023/11/17 04:15:13;;;;;;;7.00;4.13;;;;;;;;;;6218662;28;20038;-85
2023/11/17 04:18:21;;;;;;;7.45;4.20;;;;;;;;;;6217744;28;20094;-85
2023/11/17 04:21:34;;;;;;;8.27;4.75;;;;;;;;;;6219082;28;20042;-85
2023/11/17 04:24:48;;;;;;;9.55;4.78;;;;;;;;;;6224509;28;20058;-85
2023/11/17 04:28:09;;;;;;;8.95;4.95;;;;;;;;;;6193776;28;20038;-84
2023/11/17 04:31:24;;;;;;;9.02;5.53;;;;;;;;;;6206315;28;20050;-85
2023/11/17 04:34:34;;;;;;;13.43;6.63;;;;;;;;;;6219528;28;20038;-84
2023/11/17 04:41:23;;;;;;;13.43;7.25;;;;;;;;;;6783517;22;20060;-83
2023/11/17 04:44:39;;;;;;;12.52;7.30;;;;;;;;;;6223784;28;20039;-85
2023/11/17 04:47:55;;;;;;;11.80;6.32;;;;;;;;;;6225761;28;20035;-85
2023/11/17 04:51:16;;;;;;;12.32;6.82;;;;;;;;;;6227240;28;20074;-85
2023/11/17 04:54:29;;;;;;;10.57;6.38;;;;;;;;;;6213025;28;20081;-85
2023/11/17 04:57:44;;;;;;;10.80;6.38;;;;;;;;;;6224266;28;20054;-86
2023/11/17 05:01:03;;;;;;;11.88;6.10;;;;;;;;;;6196052;28;20059;-85
2023/11/17 05:04:13;;;;;;;10.10;6.07;;;;;;;;;;6216635;28;20045;-85
2023/11/17 05:07:43;;;;;;;10.65;6.07;;;;;;;;;;6199550;28;20115;-85
2023/11/17 05:11:04;;;;;;;10.60;5.95;;;;;;;;;;6212933;28;20030;-84
2023/11/17 05:14:34;;;;;;;10.27;5.60;;;;;;;;;;6195059;28;20149;-85
2023/11/17 05:17:48;;;;;;;10.35;5.78;;;;;;;;;;6199656;28;20059;-85
2023/11/17 05:21:00;;;;;;;10.45;5.70;;;;;;;;;;6199793;28;20077;-86
2023/11/17 05:24:05;;;;;;;10.68;5.68;;;;;;;;;;6205539;28;20035;-85
2023/11/17 05:27:23;;;;;;;12.75;6.60;;;;;;;;;;6189070;28;20055;-85
2023/11/17 05:30:42;;;;;;;13.32;5.75;;;;;;;;;;6214364;28;20050;-84
2023/11/17 05:33:50;;;;;;;11.23;5.88;;;;;;;;;;6192287;28;20053;-85
2023/11/17 05:37:13;;;;;;;10.25;5.55;;;;;;;;;;6203576;28;20053;-85
2023/11/17 05:40:26;;;;;;;12.02;5.55;;;;;;;;;;6201642;28;20086;-84
2023/11/17 05:43:29;;;;;;;10.70;5.65;;;;;;;;;;6219342;28;20041;-85
2023/11/17 05:46:39;;;;;;;11.25;6.53;;;;;;;;;;6197641;28;20031;-85
2023/11/17 05:49:52;;;;;;;11.88;6.55;;;;;;;;;;6226161;28;20102;-85
2023/11/17 05:52:57;;;;;;;11.00;5.95;;;;;;;;;;6201369;28;20042;-85
2023/11/17 05:56:20;;;;;;;10.13;6.43;;;;;;;;;;6210584;28;20039;-85
2023/11/17 08:37:44;;;;;;;2.65;1.08;;;;;;;;;;6527269;22;20049;-86
2023/11/17 08:40:52;;;;;;;3.35;1.13;;;;;;;;;;6271769;28;20296;-86
2023/11/17 08:43:57;;;;;;;4.97;1.50;;;;;;;;;;6271899;28;20083;-86
2023/11/17 08:50:31;;;;;;;2.17;1.02;;;;;;;;;;6270151;28;20063;-85
2023/11/17 08:53:37;;;;;;;2.25;1.02;;;;;;;;;;6269236;28;20049;-85
2023/11/17 08:56:39;;;;;;;2.05;1.10;;;;;;;;;;6270908;28;20328;-85
2023/11/17 09:03:22;;;;;;;3.35;0.93;;;;;;;;;;6271560;28;20354;-84
2023/11/17 09:06:24;;;;;;;1.85;0.98;;;;;;;;;;6272000;28;20059;-85
2023/11/17 09:09:28;;;;;;;4.57;1.10;;;;;;;;;;6274294;28;20060;-85
2023/11/17 09:12:31;;;;;;;1.65;1.00;;;;;;;;;;6272078;28;20057;-85
2023/11/17 09:15:34;;;;;;;2.80;1.40;;;;;;;;;;6272224;28;20057;-86
2023/11/17 09:18:37;;;;;;;3.40;1.08;;;;;;;;;;6274087;28;20060;-85
2023/11/17 09:21:39;;;;;;;1.38;0.70;;;;;;;;;;6272493;28;20055;-87
2023/11/17 09:24:42;;;;;;;1.90;0.80;;;;;;;;;;6265788;28;20049;-84
2023/11/17 09:27:46;;;;;;;2.67;1.10;;;;;;;;;;6261957;28;20049;-91
2023/11/17 09:30:48;;;;;;;;;;;;;;;;;;6257211;28;20061;-89
2023/11/17 09:33:50;;;;;;;5.00;1.13;;;;;;;;;;6257760;28;19917;-91
2023/11/17 09:36:51;;;;;;;4.57;1.00;;;;;;;;;;6252722;28;20049;-91
2023/11/17 09:39:54;;;;;;;2.22;0.98;;;;;;;;;;6255487;28;20277;-92
2023/11/17 09:42:59;;;;;;;3.63;0.80;;;;;;;;;;6254391;28;20053;-91
2023/11/17 09:46:02;;;;;;;2.05;1.10;;;;;;;;;;6256274;28;20064;-92
2023/11/17 09:49:04;;;;;;;3.73;1.53;;;;;;;;;;6254701;28;20053;-90
2023/11/17 09:52:06;;;;;;;2.63;1.50;;;;;;;;;;6255442;28;20067;-87
2023/11/17 09:55:11;;;;;;;2.05;0.40;;;;;;;;;;6254451;28;20045;-91
2023/11/17 09:58:15;;;;;;;3.70;0.65;;;;;;;;;;6254259;28;20111;-88
2023/11/17 10:01:19;;;;;;;1.10;0.50;;;;;;;;;;6256585;28;20037;-92
2023/11/17 10:04:22;;;;;;;0.95;0.40;;;;;;;;;;6253734;28;20099;-90
2023/11/17 10:07:24;;;;;;;;;;;;;;;;;;6254112;28;20119;-89
2023/11/17 10:10:28;;;;;;;0.93;0.28;;;;;;;;;;6253067;28;19929;-93
2023/11/17 10:13:32;;;;;;;3.42;0.47;;;;;;;;;;6254278;28;20155;-92
2023/11/17 10:16:35;;;;;;;4.50;0.40;;;;;;;;;;6254165;28;20398;-92
2023/11/17 10:19:37;;;;;;;3.57;0.77;;;;;;;;;;6254323;28;20053;-88
2023/11/17 10:22:42;;;;;;;1.92;0.20;;;;;;;;;;6253295;28;20049;-92
2023/11/17 10:25:45;;;;;;;1.27;0.30;;;;;;;;;;6254853;28;20226;-89
2023/11/17 10:28:50;;;;;;;2.75;0.47;;;;;;;;;;6253984;28;20484;-87
2023/11/17 10:31:57;;;;;;;2.88;0.40;;;;;;;;;;6253906;28;20357;-85
2023/11/17 10:35:11;;;;;;;0.60;0.30;;;;;;;;;;6253246;28;20250;-88
2023/11/17 10:38:16;;;;;;;1.80;0.20;;;;;;;;;;6252666;28;20092;-86
2023/11/17 10:41:30;;;;;;;2.33;0.15;;;;;;;;;;6253062;28;20060;-89
2023/11/17 10:44:32;;;;;;;2.15;0.38;;;;;;;;;;6255997;28;20385;-87
2023/11/17 10:47:36;;;;;;;2.83;0.30;;;;;;;;;;6260101;28;20143;-87
2023/11/17 10:50:38;;;;;;;4.68;0.28;;;;;;;;;;6252426;28;20049;-86
2023/11/17 10:53:40;;;;;;;60.03;31.75;;;;;;;;;;6256837;28;20049;-91
2023/11/17 10:56:48;;;;;;;12.68;6.00;;;;;;;;;;6261776;28;20057;-96
2023/11/17 11:00:08;;;;;;;2.15;0.75;;;;;;;;;;6263437;28;20349;-96
2023/11/17 11:03:15;;;;;;;0.57;0.20;;;;;;;;;;6264654;28;20064;-96
2023/11/17 11:06:17;;;;;;;3.97;0.45;;;;;;;;;;6254296;28;20115;-95
2023/11/17 11:09:30;;;;;;;0.50;0.20;;;;;;;;;;6247892;28;20080;-96
2023/11/17 11:12:38;;;;;;;3.63;0.20;;;;;;;;;;6234774;28;20034;-96
2023/11/17 11:15:47;;;;;;;1.50;0.30;;;;;;;;;;6240565;28;20045;-95
2023/11/17 11:18:54;;;;;;;1.10;0.30;;;;;;;;;;6258107;28;20064;-96
2023/11/17 11:22:07;;;;;;;0.63;0.30;;;;;;;;;;6262919;28;20084;-96
2023/11/17 11:25:13;;;;;;;0.17;0.05;;;;;;;;;;6261506;28;20057;-96
2023/11/17 11:28:21;;;;;;;1.02;0.30;;;;;;;;;;6260722;28;20057;-95
2023/11/17 11:31:28;;;;;;;0.75;0.30;;;;;;;;;;6263065;28;20116;-96
2023/11/17 11:34:39;;;;;;;1.00;0.20;;;;;;;;;;6263409;28;20091;-95
2023/11/17 11:37:41;;;;;;;3.88;0.50;;;;;;;;;;6259826;28;20053;-95
2023/11/17 11:40:52;;;;;;;0.70;0.30;;;;;;;;;;6260264;28;20245;-95
2023/11/17 11:43:55;;;;;;;1.25;0.43;;;;;;;;;;6258868;28;20092;-94
2023/11/17 11:46:57;;;;;;;;;;;;;;;;;;6257162;28;20071;-95
2023/11/17 11:50:14;;;;;;;0.50;0.20;;;;;;;;;;6250255;28;19917;-95
2023/11/17 11:53:32;;;;;;;0.40;0.10;;;;;;;;;;6246513;28;20148;-94
2023/11/17 11:56:38;;;;;;;1.00;0.25;;;;;;;;;;6231903;28;20060;-96
2023/11/17 11:59:49;;;;;;;0.95;0.20;;;;;;;;;;6259130;28;20068;-95
2023/11/17 12:02:57;;;;;;;1.95;0.38;;;;;;;;;;6261564;28;20057;-96
2023/11/17 12:05:59;;;;;;;1.15;0.40;;;;;;;;;;6255470;28;20061;-96
2023/11/17 12:09:07;;;;;;;0.32;0.28;;;;;;;;;;6253674;28;20053;-96
2023/11/17 12:12:10;;;;;;;0.82;0.30;;;;;;;;;;6253741;28;20218;-95
2023/11/17 12:15:13;;;;;;;1.05;0.20;;;;;;;;;;6250721;28;20056;-95
2023/11/17 12:18:15;;;;;;;;;;;;;;;;;;6248564;28;20050;-84
2023/11/17 12:21:19;;;;;;;80.20;42.13;;;;;;;;;;6251002;28;20157;-84
2023/11/17 12:24:23;;;;;;;2.33;1.17;;;;;;;;;;6247011;28;20065;-86
2023/11/17 12:27:27;;;;;;;2.08;0.30;;;;;;;;;;6240188;28;20068;-91
2023/11/17 12:30:31;;;;;;;0.25;0.10;;;;;;;;;;6252500;28;20045;-87
2023/11/17 12:33:34;;;;;;;1.67;0.30;;;;;;;;;;6246815;28;20054;-88
2023/11/17 12:36:36;;;;;;;2.28;0.63;;;;;;;;;;6249181;28;20045;-86
2023/11/17 12:39:39;;;;;;;0.60;0.40;;;;;;;;;;6255397;28;20072;-87
2023/11/17 12:42:42;;;;;;;;;;;;;;;;;;6250088;28;20083;-89
2023/11/17 12:45:46;;;;;;;0.53;0.23;;;;;;;;;;6253528;28;19925;-86
2023/11/17 12:48:47;;;;;;;;;;;;;;;;;;6254488;28;20084;-88
2023/11/17 12:51:50;;;;;;;0.73;0.30;;;;;;;;;;6255484;28;20275;-86
2023/11/17 12:55:06;;;;;;;3.93;1.00;;;;;;;;;;6253354;28;20218;-86
2023/11/17 12:58:12;;;;;;;0.52;0.10;;;;;;;;;;6254219;28;20075;-86
2023/11/17 13:01:16;;;;;;;1.65;0.40;;;;;;;;;;6253766;28;20076;-86
2023/11/17 13:04:20;;;;;;;0.98;0.20;;;;;;;;;;6252249;28;20061;-85
2023/11/17 13:07:22;;;;;;;3.10;0.40;;;;;;;;;;6254006;28;20057;-86
2023/11/17 13:10:23;;;;;;;0.93;0.40;;;;;;;;;;6249978;28;20049;-88
2023/11/17 13:13:26;;;;;;;0.88;0.50;;;;;;;;;;6254104;28;20053;-88
2023/11/17 13:16:30;;;;;;;0.90;0.40;;;;;;;;;;6247355;28;20405;-95
2023/11/17 13:19:32;;;;;;;1.30;0.20;;;;;;;;;;6255213;28;20107;-96
2023/11/17 13:22:44;;;;;;;5.05;0.43;;;;;;;;;;6248640;28;20051;-95
2023/11/17 13:26:10;;;;;;;3.92;0.50;;;;;;;;;;6244089;28;20045;-90
2023/11/17 13:29:19;;;;;;;0.82;0.40;;;;;;;;;;6247705;28;20060;-88
2023/11/17 13:32:25;;;;;;;1.48;0.52;;;;;;;;;;6253392;28;20083;-85
2023/11/17 13:35:41;;;;;;;5.78;0.93;;;;;;;;;;6245568;28;20108;-96
2023/11/17 13:39:15;;;;;;;1.20;0.45;;;;;;;;;;6244069;28;20060;-94
2023/11/17 13:42:40;;;;;;;0.70;0.40;;;;;;;;;;6230739;28;20160;-93
2023/11/17 13:45:46;;;;;;;1.55;0.52;;;;;;;;;;6248591;28;20057;-94
2023/11/17 13:48:52;;;;;;;3.42;0.40;;;;;;;;;;6227698;28;20077;-96
2023/11/17 13:52:11;;;;;;;1.42;0.30;;;;;;;;;;6245928;28;20269;-96
2023/11/17 13:55:19;;;;;;;1.20;0.38;;;;;;;;;;6252597;28;20097;-96
2023/11/17 13:58:48;;;;;;;2.60;0.28;;;;;;;;;;6246313;28;20396;-96
2023/11/17 14:01:58;;;;;;;0.80;0.30;;;;;;;;;;6235336;28;20264;-96
2023/11/17 14:05:21;;;;;;;0.60;0.32;;;;;;;;;;6242756;28;20260;-96
2023/11/17 14:08:38;;;;;;;2.42;0.57;;;;;;;;;;6226347;28;20052;-88
2023/11/17 14:11:40;;;;;;;0.52;0.25;;;;;;;;;;6243234;28;20056;-96
2023/11/17 14:14:52;;;;;;;1.27;0.50;;;;;;;;;;6263858;28;20300;-94
2023/11/17 14:17:54;;;;;;;2.67;0.20;;;;;;;;;;6240553;28;20121;-96
2023/11/17 14:20:58;;;;;;;0.90;0.17;;;;;;;;;;6255790;28;20108;-96
2023/11/17 14:24:01;;;;;;;1.13;0.20;;;;;;;;;;6249012;28;20061;-95
2023/11/17 14:27:03;;;;;;;0.80;0.20;;;;;;;;;;6255804;28;20054;-90
2023/11/17 14:30:06;;;;;;;0.82;0.20;;;;;;;;;;6258640;28;20342;-85
2023/11/17 14:33:08;;;;;;;0.68;0.40;;;;;;;;;;6251375;28;20582;-85
2023/11/17 14:36:13;;;;;;;1.77;0.30;;;;;;;;;;6257294;28;20076;-87
2023/11/17 14:39:15;;;;;;;0.95;0.38;;;;;;;;;;6247900;28;20083;-84
2023/11/17 14:42:17;;;;;;;3.30;0.80;;;;;;;;;;6258493;28;20057;-92
2023/11/17 14:45:20;;;;;;;0.68;0.38;;;;;;;;;;6257652;28;20053;-88
2023/11/17 14:48:22;;;;;;;0.40;0.20;;;;;;;;;;6254986;28;20265;-86
2023/11/17 14:51:26;;;;;;;2.25;0.28;;;;;;;;;;6253350;28;20045;-86
2023/11/17 14:54:28;;;;;;;1.92;0.20;;;;;;;;;;6255591;28;20060;-85
2023/11/17 14:57:30;;;;;;;3.05;0.75;;;;;;;;;;6253862;28;20057;-91
2023/11/17 15:00:38;;;;;;;0.30;0.30;;;;;;;;;;6253475;28;20091;-89
2023/11/17 15:03:41;;;;;;;1.77;0.30;;;;;;;;;;6256976;28;20069;-88
2023/11/17 15:06:45;;;;;;;1.73;0.27;;;;;;;;;;6257303;28;20045;-86
2023/11/17 15:09:46;;;;;;;0.90;0.30;;;;;;;;;;6256527;28;20061;-88
2023/11/17 15:12:50;;;;;;;4.45;0.80;;;;;;;;;;6257360;28;20112;-90
2023/11/17 15:15:54;;;;;;;3.30;0.50;;;;;;;;;;6251235;28;20061;-87
2023/11/17 15:18:58;;;;;;;1.63;0.60;;;;;;;;;;6257727;28;20052;-87
2023/11/17 15:22:01;;;;;;;1.17;0.60;;;;;;;;;;6255522;28;20122;-88
2023/11/17 15:25:04;;;;;;;0.82;0.30;;;;;;;;;;6257004;28;20049;-86
2023/11/17 15:28:17;;;;;;;1.67;0.50;;;;;;;;;;6257739;28;20049;-87
2023/11/17 15:31:21;;;;;;;1.75;0.20;;;;;;;;;;6253669;28;20112;-89
2023/11/17 15:34:23;;;;;;;1.20;0.45;;;;;;;;;;6257582;28;20057;-89
2023/11/17 15:37:28;;;;;;;2.53;0.40;;;;;;;;;;6261279;28;20088;-96
2023/11/17 15:40:33;;;;;;;2.25;0.57;;;;;;;;;;6258840;28;20109;-95
2023/11/17 15:43:42;;;;;;;1.50;0.40;;;;;;;;;;6262338;28;20057;-94
2023/11/17 15:46:46;;;;;;;1.00;0.40;;;;;;;;;;6258155;28;20045;-86
2023/11/17 15:49:52;;;;;;;1.85;0.32;;;;;;;;;;6257329;28;20057;-84
2023/11/17 15:52:56;;;;;;;1.00;0.30;;;;;;;;;;6254523;28;20524;-88
2023/11/17 15:55:59;;;;;;;5.40;1.00;;;;;;;;;;6262507;28;20053;-86
2023/11/17 15:59:04;;;;;;;;;;;;;;;;;;6262247;28;20045;-86
2023/11/17 16:02:06;;;;;;;1.60;0.30;;;;;;;;;;6258152;28;19996;-86
2023/11/17 16:05:13;;;;;;;2.85;0.60;;;;;;;;;;6260572;28;20084;-86
2023/11/17 16:08:17;;;;;;;4.47;0.68;;;;;;;;;;6255977;28;20064;-87
2023/11/17 16:11:19;;;;;;;5.10;0.50;;;;;;;;;;6256508;28;20049;-84
2023/11/17 16:14:23;;;;;;;1.70;0.80;;;;;;;;;;6255053;28;20049;-86
2023/11/17 16:17:27;;;;;;;4.60;0.63;;;;;;;;;;6253526;28;20041;-88
2023/11/17 16:20:31;;;;;;;1.50;0.47;;;;;;;;;;6256618;28;20053;-88
2023/11/17 16:23:35;;;;;;;4.85;0.40;;;;;;;;;;6256779;28;20095;-89
2023/11/17 16:26:37;;;;;;;1.52;0.40;;;;;;;;;;6256306;28;20061;-87
2023/11/17 16:29:42;;;;;;;2.05;0.38;;;;;;;;;;6257163;28;20116;-86
2023/11/17 16:32:46;;;;;;;0.30;0.22;;;;;;;;;;6256305;28;20056;-93
2023/11/17 16:35:48;;;;;;;1.83;0.60;;;;;;;;;;6255918;28;20077;-90
2023/11/17 16:38:52;;;;;;;0.60;0.20;;;;;;;;;;6252564;28;20053;-88
2023/11/17 16:41:54;;;;;;;0.57;0.30;;;;;;;;;;6247571;28;20054;-91
2023/11/17 16:45:00;;;;;;;0.70;0.20;;;;;;;;;;6248525;28;20046;-90
2023/11/17 16:48:06;;;;;;;1.02;0.30;;;;;;;;;;6250899;28;20234;-89
2023/11/17 16:51:10;;;;;;;2.88;0.28;;;;;;;;;;6257155;28;20107;-88
2023/11/17 16:54:13;;;;;;;0.85;0.25;;;;;;;;;;6252293;28;20108;-87
2023/11/17 16:57:15;;;;;;;1.02;0.30;;;;;;;;;;6258235;28;20053;-86
2023/11/17 17:00:20;;;;;;;0.43;0.20;;;;;;;;;;6255666;28;20269;-87
2023/11/17 17:03:22;;;;;;;0.52;0.30;;;;;;;;;;6256136;28;20049;-85
2023/11/17 17:06:27;;;;;;;0.55;0.30;;;;;;;;;;6251023;28;20312;-95
2023/11/17 17:09:38;;;;;;;1.55;0.30;;;;;;;;;;6249059;28;20258;-96
2023/11/17 17:12:52;;;;;;;2.60;0.50;;;;;;;;;;6236180;28;20238;-96
2023/11/17 17:16:03;;;;;;;0.65;0.10;;;;;;;;;;6241350;28;20057;-96
2023/11/17 17:19:12;;;;;;;0.70;0.47;;;;;;;;;;6246492;28;20365;-94
2023/11/17 17:22:38;;;;;;;1.17;0.50;;;;;;;;;;6251830;28;20072;-88
2023/11/17 17:25:46;;;;;;;1.00;0.55;;;;;;;;;;6248132;28;20048;-95
2023/11/17 17:28:53;;;;;;;1.13;0.55;;;;;;;;;;6232467;28;20223;-95
2023/11/17 17:31:58;;;;;;;0.65;0.45;;;;;;;;;;6256956;28;20418;-94
2023/11/17 17:35:04;;;;;;;0.88;0.50;;;;;;;;;;6246727;28;20046;-95
2023/11/17 17:38:10;;;;;;;0.95;0.43;;;;;;;;;;6265080;28;20055;-95
2023/11/17 17:41:22;;;;;;;2.42;0.70;;;;;;;;;;6259036;28;20044;-95
2023/11/17 17:44:31;;;;;;;2.80;0.68;;;;;;;;;;6243624;28;20068;-91
2023/11/17 17:47:35;;;;;;;3.63;0.80;;;;;;;;;;6251940;28;20057;-95
2023/11/17 17:50:44;;;;;;;1.95;0.60;;;;;;;;;;6257595;28;20222;-96
2023/11/17 17:53:50;;;;;;;2.85;1.02;;;;;;;;;;6258516;28;20041;-96
2023/11/17 17:57:01;;;;;;;1.83;0.80;;;;;;;;;;6256866;28;20057;-92
2023/11/17 18:04:10;;;;;;;2.00;0.60;;;;;;;;;;6213332;28;20089;-95
2023/11/17 18:07:37;;;;;;;4.93;0.90;;;;;;;;;;6206429;28;20056;-95
2023/11/17 18:21:06;;;;;;;2.10;0.85;;;;;;;;;;6152431;28;20093;-96
2023/11/17 18:27:59;;;;;;;2.03;0.98;;;;;;;;;;6228803;23;20056;-96
2023/11/17 18:34:57;;;;;;;3.65;1.10;;;;;;;;;;6189740;28;20058;-95
2023/11/17 18:38:21;;;;;;;2.42;0.93;;;;;;;;;;6184214;28;21018;-95
2023/11/17 18:41:50;;;;;;;1.52;0.77;;;;;;;;;;6172397;28;20054;-97
2023/11/17 18:45:13;;;;;;;3.38;1.30;;;;;;;;;;6217414;22;20037;-85
2023/11/17 18:48:21;;;;;;;1.20;0.80;;;;;;;;;;6286894;28;20056;-85
2023/11/17 18:51:23;;;;;;;2.47;0.77;;;;;;;;;;6295385;28;20045;-84
2023/11/17 18:54:28;;;;;;;1.77;0.70;;;;;;;;;;6276627;28;20047;-84
2023/11/17 18:57:30;;;;;;;3.13;1.00;;;;;;;;;;6282233;28;20075;-80
2023/11/17 19:00:33;;;;;;;2.13;1.10;;;;;;;;;;6250506;28;20300;-86
2023/11/17 19:03:37;;;;;;;2.35;0.95;;;;;;;;;;6247244;28;20520;-85
2023/11/17 19:06:41;;;;;;;2.38;0.80;;;;;;;;;;6239959;28;20113;-85
2023/11/17 19:09:46;;;;;;;2.25;1.10;;;;;;;;;;6254221;28;20058;-84
2023/11/17 19:12:51;;;;;;;1.70;0.82;;;;;;;;;;6245896;28;20122;-86
2023/11/17 19:15:53;;;;;;;2.05;0.93;;;;;;;;;;6244551;28;20103;-85
2023/11/17 19:18:57;;;;;;;2.97;1.00;;;;;;;;;;6249871;28;20068;-87
2023/11/17 19:22:04;;;;;;;2.08;1.08;;;;;;;;;;6255975;28;20068;-84
2023/11/17 19:25:08;;;;;;;1.63;0.80;;;;;;;;;;6257443;28;20067;-84
2023/11/17 19:28:10;;;;;;;4.47;1.03;;;;;;;;;;6262216;28;20049;-85
2023/11/17 19:31:24;;;;;;;1.67;0.93;;;;;;;;;;6253182;28;20076;-85
2023/11/17 19:34:27;;;;;;;1.38;0.80;;;;;;;;;;6247814;28;20111;-84
2023/11/17 19:37:58;;;;;;;1.65;0.88;;;;;;;;;;6252445;28;20050;-95
2023/11/17 19:41:32;;;;;;;1.70;0.98;;;;;;;;;;6248719;28;20053;-96
2023/11/17 19:45:04;;;;;;;3.05;0.80;;;;;;;;;;6223641;28;20051;-95
2023/11/17 19:48:11;;;;;;;0.85;0.65;;;;;;;;;;6271614;28;20051;-95
2023/11/17 19:51:40;;;;;;;2.38;0.90;;;;;;;;;;6258240;28;20260;-96
2023/11/17 19:55:07;;;;;;;2.78;1.10;;;;;;;;;;6248289;28;20051;-96
2023/11/17 19:58:30;;;;;;;2.35;1.13;;;;;;;;;;6246552;28;20099;-96
2023/11/17 20:01:58;;;;;;;5.25;1.80;;;;;;;;;;6268803;28;20064;-96
2023/11/17 20:16:06;;;;;;;1.50;0.98;;;;;;;;;;6268477;28;20337;-96
2023/11/17 20:19:13;;;;;;;1.80;0.98;;;;;;;;;;6245087;28;20037;-96
2023/11/17 20:22:19;;;;;;;3.15;1.13;;;;;;;;;;6265908;28;20109;-96
2023/11/17 20:25:33;;;;;;;3.85;1.20;;;;;;;;;;6257947;28;20307;-96
2023/11/17 20:28:46;;;;;;;6.72;1.20;;;;;;;;;;6243950;28;20047;-96
2023/11/17 20:32:08;;;;;;;3.13;1.42;;;;;;;;;;6271086;28;20073;-96
2023/11/17 20:35:33;;;;;;;2.30;1.27;;;;;;;;;;6250975;28;20045;-96
2023/11/17 20:38:48;;;;;;;2.13;1.20;;;;;;;;;;6240368;28;20053;-96
2023/11/17 20:45:45;;;;;;;2.92;1.00;;;;;;;;;;6238118;28;20051;-96
2023/11/17 20:49:19;;;;;;;1.48;0.75;;;;;;;;;;6232664;28;20050;-96
2023/11/17 20:52:48;;;;;;;1.98;0.90;;;;;;;;;;6220364;28;20081;-96
2023/11/17 21:07:05;;;;;;;1.40;0.80;;;;;;;;;;6240645;23;20042;-96
2023/11/17 21:10:30;;;;;;;4.80;1.40;;;;;;;;;;6207901;28;20073;-95
2023/11/17 21:13:44;;;;;;;;;;;;;;;;;;6231026;28;20038;-96
2023/11/17 21:17:20;;;;;;;3.97;1.30;;;;;;;;;;6236831;28;19936;-95
2023/11/17 21:24:14;;;;;;;3.47;1.25;;;;;;;;;;6198417;28;20050;-96
2023/11/17 21:27:50;;;;;;;2.35;1.10;;;;;;;;;;6222396;28;20087;-94
2023/11/17 21:31:35;;;;;;;2.00;1.30;;;;;;;;;;6238058;28;20101;-94
2023/11/17 21:38:29;;;;;;;3.47;1.50;;;;;;;;;;6264944;23;20041;-96
2023/11/17 21:48:53;;;;;;;2.53;1.27;;;;;;;;;;6233467;28;20030;-96
2023/11/17 21:51:59;;;;;;;3.50;1.70;;;;;;;;;;6348160;22;20092;-96
2023/11/17 21:55:13;;;;;;;3.55;1.60;;;;;;;;;;6208928;28;20488;-96
2023/11/17 22:05:08;;;;;;;3.63;1.63;;;;;;;;;;6730167;22;20034;-95
2023/11/17 22:08:13;;;;;;;4.83;1.60;;;;;;;;;;6224605;28;20042;-96
2023/11/17 22:11:36;;;;;;;2.67;1.30;;;;;;;;;;6177833;28;20030;-93
2023/11/17 22:14:45;;;;;;;4.20;1.63;;;;;;;;;;6232706;28;20065;-96
2023/11/17 22:17:59;;;;;;;5.03;1.42;;;;;;;;;;6212595;28;20078;-94
2023/11/17 22:21:30;;;;;;;4.40;1.90;;;;;;;;;;6290844;23;20053;-96
2023/11/17 23:26:16;;;;;;;1.90;0.60;;;;;;;;;;7227673;22;20226;-83
2023/11/17 23:29:21;;;;;;;1.85;0.60;;;;;;;;;;6291992;28;20048;-84
2023/11/17 23:32:47;;;;;;;1.20;0.57;;;;;;;;;;6275146;28;20034;-83
2023/11/17 23:46:28;;;;;;;65.82;22.67;;;;;;;;;;6217430;28;20042;-96
2023/11/17 23:53:26;;;;;;;52.17;19.10;;;;;;;;;;6197315;28;20113;-96
2023/11/17 23:56:28;;;;;;;21.73;9.48;;;;;;;;;;6226238;28;20052;-96
2023/11/17 23:59:30;;;;;;;235.63;88.03;;;;;;;;;;6226673;28;20072;-95
